createdAt,value
2022-11-14T00:00:58.784Z,429.50
2022-11-14T00:03:25.198Z,451.27
2022-11-14T00:05:51.793Z,449.47
2022-11-14T00:08:18.257Z,433.80
2022-11-14T00:10:44.653Z,438.23
2022-11-14T00:13:11.058Z,435.73
2022-11-14T00:15:37.448Z,441.90
2022-11-14T00:18:03.868Z,456.33
2022-11-14T00:20:30.301Z,454.03
2022-11-14T00:22:56.700Z,459.10
2022-11-14T00:25:23.091Z,467.47
2022-11-14T00:27:49.512Z,444.07
2022-11-14T00:30:15.910Z,438.80
2022-11-14T00:32:42.299Z,438.90
2022-11-14T00:35:08.700Z,441.63
2022-11-14T00:37:35.086Z,430.67
2022-11-14T00:40:01.515Z,437.30
2022-11-14T00:42:27.935Z,450.20
2022-11-14T00:44:54.334Z,430.90
2022-11-14T00:47:20.756Z,451.63
2022-11-14T00:49:47.156Z,433.27
2022-11-14T00:52:13.543Z,432.97
2022-11-14T00:54:39.964Z,431.43
2022-11-14T00:57:06.492Z,434.23
2022-11-14T00:59:32.872Z,437.20
2022-11-14T01:01:59.268Z,431.83
2022-11-14T01:04:25.673Z,450.70
2022-11-14T01:06:52.067Z,448.57
2022-11-14T01:09:18.522Z,432.90
2022-11-14T01:11:44.950Z,449.40
2022-11-14T01:14:11.333Z,451.67
2022-11-14T01:16:37.772Z,441.83
2022-11-14T01:19:04.207Z,434.93
2022-11-14T01:21:30.610Z,447.57
2022-11-14T01:23:57.005Z,436.33
2022-11-14T01:26:23.416Z,436.00
2022-11-14T01:28:50.000Z,431.63
2022-11-14T01:31:16.372Z,451.50
2022-11-14T01:33:42.774Z,432.63
2022-11-14T01:36:09.191Z,448.77
2022-11-14T01:38:35.571Z,431.37
2022-11-14T01:41:01.976Z,455.80
2022-11-14T01:43:28.509Z,462.70
2022-11-14T01:45:54.921Z,449.37
2022-11-14T01:48:21.337Z,453.57
2022-11-14T01:50:47.730Z,432.47
2022-11-14T01:53:14.124Z,432.00
2022-11-14T01:55:40.511Z,429.80
2022-11-14T01:58:06.922Z,445.00
2022-11-14T02:00:33.318Z,446.33
2022-11-14T02:02:59.721Z,434.80
2022-11-14T02:05:26.120Z,431.53
2022-11-14T02:07:52.532Z,432.63
2022-11-14T02:10:19.077Z,453.97
2022-11-14T02:12:45.493Z,456.17
2022-11-14T02:15:11.937Z,432.10
2022-11-14T02:17:38.325Z,446.93
2022-11-14T02:20:05.524Z,450.27
2022-11-14T02:22:32.215Z,431.67
2022-11-14T02:24:58.649Z,432.20
2022-11-14T02:27:25.081Z,450.57
2022-11-14T02:29:51.561Z,431.87
2022-11-14T02:32:17.952Z,453.13
2022-11-14T02:34:44.412Z,441.53
2022-11-14T02:37:10.821Z,448.67
2022-11-14T02:39:37.229Z,438.20
2022-11-14T02:42:03.639Z,432.40
2022-11-14T02:44:30.239Z,429.70
2022-11-14T02:46:56.622Z,442.67
2022-11-14T02:49:23.016Z,432.60
2022-11-14T02:51:49.491Z,431.40
2022-11-14T02:54:15.892Z,449.83
2022-11-14T02:56:42.298Z,432.87
2022-11-14T02:59:08.702Z,432.83
2022-11-14T03:01:35.132Z,430.67
2022-11-14T03:04:01.601Z,449.17
2022-11-14T03:06:28.000Z,452.90
2022-11-14T03:08:54.414Z,449.23
2022-11-14T03:11:20.798Z,437.53
2022-11-14T03:13:47.220Z,438.60
2022-11-14T03:16:13.633Z,459.37
2022-11-14T03:18:40.225Z,457.73
2022-11-14T03:21:06.620Z,458.80
2022-11-14T03:23:33.034Z,460.80
2022-11-14T03:25:59.439Z,460.80
2022-11-14T03:28:25.881Z,436.03
2022-11-14T03:30:52.278Z,433.53
2022-11-14T03:33:18.728Z,435.13
2022-11-14T03:35:45.148Z,458.53
2022-11-14T03:38:11.561Z,453.73
2022-11-14T03:40:37.955Z,437.27
2022-11-14T03:43:04.369Z,455.23
2022-11-14T03:45:30.761Z,451.30
2022-11-14T03:47:57.193Z,454.13
2022-11-14T03:50:23.579Z,437.53
2022-11-14T03:52:49.964Z,461.77
2022-11-14T03:55:16.349Z,436.20
2022-11-14T03:57:42.750Z,433.10
2022-11-14T04:00:09.185Z,459.10
2022-11-14T04:02:35.606Z,437.67
2022-11-14T04:05:02.022Z,437.40
2022-11-14T04:07:28.502Z,435.23
2022-11-14T04:09:54.937Z,450.07
2022-11-14T04:12:21.347Z,434.20
2022-11-14T04:14:47.826Z,439.27
2022-11-14T04:17:14.208Z,454.07
2022-11-14T04:19:40.608Z,437.30
2022-11-14T04:22:06.999Z,454.33
2022-11-14T04:24:33.472Z,447.00
2022-11-14T04:26:59.886Z,459.73
2022-11-14T04:29:26.294Z,434.13
2022-11-14T04:31:52.698Z,437.90
2022-11-14T04:34:19.108Z,436.70
2022-11-14T04:36:45.492Z,442.13
2022-11-14T04:39:11.973Z,442.37
2022-11-14T04:41:38.676Z,459.87
2022-11-14T04:44:05.089Z,443.00
2022-11-14T04:46:31.477Z,442.47
2022-11-14T04:48:57.888Z,451.90
2022-11-14T04:51:24.274Z,453.57
2022-11-14T04:53:50.692Z,466.67
2022-11-14T04:56:17.092Z,465.27
2022-11-14T04:58:43.518Z,441.87
2022-11-14T05:01:09.939Z,457.50
2022-11-14T05:03:36.373Z,438.53
2022-11-14T05:06:02.779Z,444.00
2022-11-14T05:08:29.399Z,435.80
2022-11-14T05:10:55.960Z,436.97
2022-11-14T05:13:22.368Z,444.07
2022-11-14T05:15:48.777Z,457.90
2022-11-14T05:18:15.196Z,454.67
2022-11-14T05:20:41.630Z,462.73
2022-11-14T05:23:08.030Z,462.87
2022-11-14T05:25:34.429Z,455.57
2022-11-14T05:28:00.830Z,459.50
2022-11-14T05:30:27.225Z,453.50
2022-11-14T05:32:53.765Z,442.93
2022-11-14T05:35:20.161Z,439.20
2022-11-14T05:37:46.557Z,440.80
2022-11-14T05:40:12.957Z,461.87
2022-11-14T05:42:39.354Z,438.87
2022-11-14T05:45:05.778Z,459.97
2022-11-14T05:47:32.167Z,463.33
2022-11-14T05:49:58.561Z,440.07
2022-11-14T05:52:24.943Z,459.87
2022-11-14T05:54:51.348Z,439.67
2022-11-14T05:57:17.746Z,458.63
2022-11-14T05:59:44.166Z,454.17
2022-11-14T06:02:10.591Z,457.37
2022-11-14T06:04:37.036Z,437.37
2022-11-14T06:07:03.484Z,442.50
2022-11-14T06:09:29.971Z,445.73
2022-11-14T06:11:56.371Z,436.17
2022-11-14T06:14:22.786Z,442.40
2022-11-14T06:16:49.199Z,441.13
2022-11-14T06:19:15.619Z,436.07
2022-11-14T06:21:42.036Z,460.50
2022-11-14T06:24:08.446Z,440.80
2022-11-14T06:26:34.829Z,462.87
2022-11-14T06:29:01.214Z,440.47
2022-11-14T06:31:27.614Z,436.03
2022-11-14T06:33:54.000Z,436.53
2022-11-14T06:36:20.386Z,459.60
2022-11-14T06:38:46.786Z,458.40
2022-11-14T06:41:13.282Z,461.00
2022-11-14T06:43:39.691Z,441.97
2022-11-14T06:46:06.302Z,461.73
2022-11-14T06:48:32.900Z,439.67
2022-11-14T06:50:59.641Z,448.00
2022-11-14T06:53:26.041Z,463.60
2022-11-14T06:55:52.634Z,439.37
2022-11-14T06:58:19.056Z,444.80
2022-11-14T07:00:45.465Z,447.10
2022-11-14T07:03:11.907Z,457.80
2022-11-14T07:05:38.349Z,455.80
2022-11-14T07:08:04.761Z,465.37
2022-11-14T07:10:31.148Z,437.53
2022-11-14T07:12:57.761Z,443.50
2022-11-14T07:15:24.265Z,460.57
2022-11-14T07:17:50.870Z,463.23
2022-11-14T07:20:17.284Z,440.77
2022-11-14T07:22:43.675Z,462.93
2022-11-14T07:25:10.065Z,464.37
2022-11-14T07:27:36.454Z,461.07
2022-11-14T07:30:02.842Z,438.50
2022-11-14T07:32:29.307Z,458.77
2022-11-14T07:35:00.787Z,442.50
2022-11-14T07:37:28.604Z,438.17
2022-11-14T07:39:55.011Z,459.00
2022-11-14T07:42:21.402Z,457.50
2022-11-14T07:44:47.818Z,458.70
2022-11-14T07:47:14.210Z,444.47
2022-11-14T07:49:40.618Z,466.80
2022-11-14T07:52:07.121Z,463.80
2022-11-14T07:54:33.541Z,458.20
2022-11-14T07:56:59.932Z,448.80
2022-11-14T07:59:26.329Z,448.77
2022-11-14T08:01:53.033Z,461.17
2022-11-14T08:04:19.452Z,443.97
2022-11-14T08:06:45.881Z,460.03
2022-11-14T08:09:12.320Z,460.53
2022-11-14T08:11:38.733Z,444.03
2022-11-14T08:14:05.151Z,462.03
2022-11-14T08:16:31.550Z,442.43
2022-11-14T08:18:58.182Z,460.63
2022-11-14T08:21:24.595Z,444.13
2022-11-14T08:23:51.002Z,440.80
2022-11-14T08:26:17.397Z,436.93
2022-11-14T08:28:43.803Z,441.57
2022-11-14T08:31:10.193Z,440.20
2022-11-14T08:33:36.588Z,437.90
2022-11-14T08:36:03.001Z,442.20
2022-11-14T08:38:29.768Z,440.50
2022-11-14T08:40:56.402Z,438.27
2022-11-14T08:43:22.801Z,441.67
2022-11-14T08:45:49.188Z,454.77
2022-11-14T08:48:15.586Z,441.30
2022-11-14T08:50:42.000Z,442.47
2022-11-14T08:53:08.399Z,459.13
2022-11-14T08:55:34.803Z,463.47
2022-11-14T08:58:01.198Z,448.43
2022-11-14T09:00:27.614Z,463.60
2022-11-14T09:02:54.039Z,462.47
2022-11-14T09:05:20.495Z,442.80
2022-11-14T09:07:46.894Z,446.90
2022-11-14T09:10:13.298Z,448.00
2022-11-14T09:12:39.695Z,470.40
2022-11-14T09:15:06.081Z,454.27
2022-11-14T09:17:32.489Z,463.67
2022-11-14T09:19:58.906Z,452.57
2022-11-14T09:22:25.300Z,471.40
2022-11-14T09:24:51.883Z,448.57
2022-11-14T09:27:18.280Z,466.07
2022-11-14T09:29:44.691Z,464.17
2022-11-14T09:32:11.128Z,444.20
2022-11-14T09:34:37.721Z,468.67
2022-11-14T09:37:04.133Z,444.87
2022-11-14T09:39:30.554Z,465.67
2022-11-14T09:41:56.990Z,469.60
2022-11-14T09:44:23.383Z,453.47
2022-11-14T09:46:49.781Z,461.93
2022-11-14T09:49:16.209Z,473.63
2022-11-14T09:51:42.718Z,464.03
2022-11-14T09:54:09.150Z,467.27
2022-11-14T09:56:35.544Z,466.03
2022-11-14T09:59:01.950Z,472.23
2022-11-14T10:01:28.381Z,486.07
2022-11-14T10:03:54.829Z,447.50
2022-11-14T10:06:21.212Z,460.23
2022-11-14T10:08:47.620Z,656.17
2022-11-14T10:11:14.021Z,530.80
2022-11-14T10:13:40.463Z,490.47
2022-11-14T10:16:06.846Z,478.40
2022-11-14T10:18:33.356Z,456.60
2022-11-14T10:20:59.836Z,480.70
2022-11-14T10:23:26.274Z,454.10
2022-11-14T10:25:52.668Z,450.20
2022-11-14T10:28:19.063Z,464.83
2022-11-14T10:30:45.482Z,448.77
2022-11-14T10:33:11.881Z,468.60
2022-11-14T10:35:38.280Z,471.03
2022-11-14T10:38:04.671Z,449.27
2022-11-14T10:40:31.087Z,470.47
2022-11-14T10:42:57.498Z,456.90
2022-11-14T10:45:23.987Z,480.23
2022-11-14T10:47:50.396Z,450.13
2022-11-14T10:50:16.806Z,453.43
2022-11-14T10:52:43.217Z,450.73
2022-11-14T10:55:09.616Z,464.77
2022-11-14T10:57:36.211Z,457.63
2022-11-14T11:00:02.644Z,451.63
2022-11-14T11:02:33.932Z,460.30
2022-11-14T11:05:02.651Z,465.80
2022-11-14T11:07:29.079Z,446.00
2022-11-14T11:09:55.601Z,446.23
2022-11-14T11:12:22.098Z,448.87
2022-11-14T11:14:48.558Z,468.20
2022-11-14T11:17:14.966Z,464.77
2022-11-14T11:19:41.343Z,458.47
2022-11-14T11:22:07.735Z,466.33
2022-11-14T11:24:34.117Z,444.50
2022-11-14T11:27:00.504Z,473.70
2022-11-14T11:29:27.260Z,468.17
2022-11-14T11:31:53.767Z,463.33
2022-11-14T11:34:20.159Z,443.77
2022-11-14T11:36:46.534Z,469.57
2022-11-14T11:39:12.929Z,444.93
2022-11-14T11:44:25.667Z,455.47
2022-11-14T11:46:52.055Z,451.83
2022-11-14T11:49:18.447Z,444.33
2022-11-14T11:51:44.821Z,467.03
2022-11-14T11:54:11.210Z,448.13
2022-11-14T11:56:37.605Z,468.07
2022-11-14T11:59:04.118Z,449.63
2022-11-14T12:01:30.505Z,444.80
2022-11-14T12:03:57.031Z,452.60
2022-11-14T12:06:23.470Z,462.90
2022-11-14T12:08:49.872Z,448.33
2022-11-14T12:11:16.286Z,449.33
2022-11-14T12:13:42.760Z,448.07
2022-11-14T12:16:13.053Z,460.10
2022-11-14T12:18:39.829Z,448.80
2022-11-14T12:21:06.228Z,449.37
2022-11-14T12:23:32.973Z,470.90
2022-11-14T12:25:59.527Z,453.50
2022-11-14T12:28:25.923Z,446.63
2022-11-14T12:30:52.585Z,471.53
2022-11-14T12:33:18.982Z,465.90
2022-11-14T12:35:45.413Z,448.63
2022-11-14T12:38:11.802Z,468.43
2022-11-14T12:40:38.384Z,464.17
2022-11-14T12:43:04.772Z,468.60
2022-11-14T12:45:31.184Z,446.43
2022-11-14T12:47:57.572Z,440.83
2022-11-14T12:50:23.981Z,464.80
2022-11-14T12:52:50.393Z,457.50
2022-11-14T12:55:16.793Z,448.83
2022-11-14T12:57:43.189Z,466.83
2022-11-14T13:00:09.783Z,446.77
2022-11-14T13:02:36.165Z,464.30
2022-11-14T13:05:02.561Z,444.10
2022-11-14T13:07:34.070Z,442.63
2022-11-14T13:10:00.865Z,461.63
2022-11-14T13:12:27.444Z,456.87
2022-11-14T13:14:53.857Z,470.43
2022-11-14T13:17:20.261Z,466.10
2022-11-14T13:19:46.673Z,473.93
2022-11-14T13:22:13.073Z,445.63
2022-11-14T13:24:39.476Z,444.73
2022-11-14T13:27:05.857Z,461.87
2022-11-14T13:29:32.291Z,469.00
2022-11-14T13:31:58.677Z,462.47
2022-11-14T13:34:25.063Z,448.13
2022-11-14T13:36:51.471Z,444.07
2022-11-14T13:39:17.856Z,452.40
2022-11-14T13:41:47.924Z,471.93
2022-11-14T13:44:14.651Z,465.70
2022-11-14T13:46:41.065Z,447.73
2022-11-14T13:49:07.463Z,452.30
2022-11-14T13:51:43.409Z,470.47
2022-11-14T13:54:14.735Z,455.97
2022-11-14T13:56:43.781Z,468.90
2022-11-14T13:59:10.176Z,446.90
2022-11-14T14:01:36.685Z,473.97
2022-11-14T14:04:03.170Z,468.67
2022-11-14T14:06:29.570Z,445.43
2022-11-14T14:08:56.006Z,442.47
2022-11-14T14:11:22.437Z,445.93
2022-11-14T14:13:54.025Z,492.37
2022-11-14T14:16:21.649Z,517.23
2022-11-14T14:18:48.053Z,479.17
2022-11-14T14:21:14.451Z,477.20
2022-11-14T14:23:40.859Z,445.03
2022-11-14T14:26:07.304Z,457.77
2022-11-14T14:28:33.980Z,454.23
2022-11-14T14:31:00.738Z,468.77
2022-11-14T14:33:27.130Z,450.13
2022-11-14T14:35:53.532Z,475.63
2022-11-14T14:38:19.952Z,516.87
2022-11-14T14:40:46.365Z,511.77
2022-11-14T14:43:12.766Z,506.47
2022-11-14T14:45:39.512Z,519.13
2022-11-14T14:48:05.905Z,488.43
2022-11-14T14:50:32.296Z,517.63
2022-11-14T14:52:58.677Z,507.70
2022-11-14T14:55:25.085Z,519.80
2022-11-14T14:57:51.493Z,511.10
2022-11-14T15:00:17.892Z,500.77
2022-11-14T15:02:44.295Z,522.83
2022-11-14T15:05:10.852Z,513.17
2022-11-14T15:07:37.265Z,506.53
2022-11-14T15:10:03.909Z,503.37
2022-11-14T15:12:30.287Z,521.03
2022-11-14T15:14:56.685Z,518.63
2022-11-14T15:17:23.064Z,523.60
2022-11-14T15:19:49.492Z,510.50
2022-11-14T15:22:15.888Z,525.30
2022-11-14T15:24:42.339Z,527.40
2022-11-14T15:27:08.742Z,521.27
2022-11-14T15:29:35.125Z,528.00
2022-11-14T15:32:01.508Z,526.13
2022-11-14T15:34:27.894Z,533.97
2022-11-14T15:36:54.295Z,542.13
2022-11-14T15:39:20.663Z,544.80
2022-11-14T15:41:47.056Z,537.57
2022-11-14T15:44:13.435Z,522.63
2022-11-14T15:46:39.826Z,528.90
2022-11-14T15:49:06.267Z,533.87
2022-11-14T15:51:32.725Z,533.33
2022-11-14T15:53:59.119Z,540.60
2022-11-14T15:56:25.535Z,525.70
2022-11-14T15:58:52.453Z,541.73
2022-11-14T16:01:19.174Z,557.50
2022-11-14T16:03:45.635Z,547.93
2022-11-14T16:06:12.082Z,451.73
2022-11-14T16:08:38.481Z,452.37
2022-11-14T16:11:04.882Z,457.47
2022-11-14T16:13:31.461Z,461.60
2022-11-14T16:15:58.074Z,556.77
2022-11-14T16:18:24.457Z,530.80
2022-11-14T16:20:50.842Z,514.80
2022-11-14T16:23:17.260Z,538.63
2022-11-14T16:25:43.658Z,564.43
2022-11-14T16:28:10.033Z,568.73
2022-11-14T16:30:36.435Z,566.47
2022-11-14T16:33:02.843Z,577.40
2022-11-14T16:35:29.236Z,460.37
2022-11-14T16:37:55.617Z,479.63
2022-11-14T16:40:22.025Z,471.37
2022-11-14T16:42:48.475Z,475.83
2022-11-14T16:45:14.927Z,509.23
2022-11-14T16:47:41.371Z,549.83
2022-11-14T16:50:07.764Z,566.30
2022-11-14T16:52:34.163Z,554.20
2022-11-14T16:55:00.553Z,522.73
2022-11-14T16:57:26.932Z,518.00
2022-11-14T16:59:53.312Z,508.70
2022-11-14T17:02:19.720Z,514.00
2022-11-14T17:04:46.149Z,512.87
2022-11-14T17:07:12.603Z,495.53
2022-11-14T17:09:39.053Z,505.70
2022-11-14T17:12:05.446Z,505.90
2022-11-14T17:14:31.831Z,504.53
2022-11-14T17:17:04.201Z,522.30
2022-11-14T17:19:30.582Z,500.10
2022-11-14T17:21:56.972Z,517.37
2022-11-14T17:24:27.245Z,510.93
2022-11-14T17:26:56.546Z,505.17
2022-11-14T17:29:23.061Z,488.27
2022-11-14T17:31:49.485Z,473.90
2022-11-14T17:34:15.885Z,467.10
2022-11-14T17:36:42.290Z,452.97
2022-11-14T17:39:08.677Z,470.97
2022-11-14T17:41:35.140Z,474.30
2022-11-14T17:44:01.541Z,470.00
2022-11-14T17:46:27.951Z,471.27
2022-11-14T17:48:54.340Z,482.83
2022-11-14T17:51:20.771Z,471.03
2022-11-14T17:53:47.159Z,462.50
2022-11-14T17:56:13.652Z,477.60
2022-11-14T17:58:40.042Z,480.80
2022-11-14T18:01:06.522Z,487.50
2022-11-14T18:03:32.940Z,486.67
2022-11-14T18:05:59.340Z,496.83
2022-11-14T18:08:25.745Z,566.07
2022-11-14T18:10:52.308Z,575.53
2022-11-14T18:13:18.701Z,551.97
2022-11-14T18:15:45.106Z,562.63
2022-11-14T18:18:11.705Z,561.47
2022-11-14T18:20:38.126Z,540.00
2022-11-14T18:23:04.522Z,549.73
2022-11-14T18:25:30.957Z,541.43
2022-11-14T18:27:57.346Z,534.30
2022-11-14T18:33:10.147Z,458.80
2022-11-14T18:35:36.565Z,451.60
2022-11-14T18:38:02.959Z,449.03
2022-11-14T18:40:29.378Z,445.17
2022-11-14T18:42:56.025Z,451.73
2022-11-14T18:45:22.467Z,464.37
2022-11-14T18:47:48.874Z,454.00
2022-11-14T18:50:15.484Z,474.50
2022-11-14T18:52:41.928Z,451.80
2022-11-14T18:55:08.544Z,450.37
2022-11-14T18:57:34.945Z,468.83
2022-11-14T19:00:01.367Z,466.27
2022-11-14T19:02:27.882Z,463.47
2022-11-14T19:04:54.330Z,464.90
2022-11-14T19:07:20.788Z,475.20
2022-11-14T19:09:47.292Z,451.67
2022-11-14T19:12:13.733Z,453.23
2022-11-14T19:14:40.119Z,461.40
2022-11-14T19:17:07.591Z,452.77
2022-11-14T19:19:33.984Z,455.07
2022-11-14T19:22:00.432Z,487.27
2022-11-14T19:24:26.835Z,470.70
2022-11-14T19:26:53.239Z,466.63
2022-11-14T19:29:19.812Z,463.47
2022-11-14T19:31:46.237Z,461.37
2022-11-14T19:34:12.628Z,452.40
2022-11-14T19:36:58.770Z,451.47
2022-11-14T19:39:25.563Z,452.23
2022-11-14T19:41:51.940Z,468.97
2022-11-14T19:44:18.347Z,473.93
2022-11-14T19:46:47.846Z,467.70
2022-11-14T19:49:14.677Z,450.57
2022-11-14T19:51:41.301Z,465.80
2022-11-14T19:54:07.708Z,474.43
2022-11-14T19:56:34.119Z,452.67
2022-11-14T19:59:00.504Z,472.83
2022-11-14T20:01:27.019Z,495.93
2022-11-14T20:03:53.501Z,494.90
2022-11-14T20:06:19.918Z,666.22
2022-11-14T20:08:46.314Z,524.70
2022-11-14T20:11:12.708Z,508.23
2022-11-14T20:13:39.091Z,520.10
2022-11-14T20:16:05.468Z,513.90
2022-11-14T20:18:31.853Z,517.23
2022-11-14T20:20:58.227Z,507.40
2022-11-14T20:23:24.603Z,522.27
2022-11-14T20:25:51.014Z,512.47
2022-11-14T20:28:17.405Z,524.23
2022-11-14T20:30:43.826Z,511.87
2022-11-14T20:33:10.238Z,512.60
2022-11-14T20:35:36.645Z,510.47
2022-11-14T20:38:04.648Z,518.13
2022-11-14T20:40:31.334Z,510.43
2022-11-14T20:42:57.857Z,520.37
2022-11-14T20:45:24.258Z,524.80
2022-11-14T20:47:50.632Z,522.67
2022-11-14T20:50:17.036Z,524.43
2022-11-14T20:52:43.425Z,467.70
2022-11-14T20:55:11.902Z,470.00
2022-11-14T20:57:38.504Z,477.03
2022-11-14T21:00:04.920Z,528.27
2022-11-14T21:02:31.305Z,523.33
2022-11-14T21:04:57.696Z,544.33
2022-11-14T21:07:24.240Z,543.53
2022-11-14T21:09:50.684Z,553.87
2022-11-14T21:12:17.105Z,588.90
2022-11-14T21:14:43.498Z,585.80
2022-11-14T21:17:09.902Z,543.80
2022-11-14T21:19:36.288Z,489.03
2022-11-14T21:22:02.745Z,481.17
2022-11-14T21:24:29.171Z,478.70
2022-11-14T21:26:55.572Z,465.17
2022-11-14T21:29:22.163Z,481.63
2022-11-14T21:31:48.569Z,482.63
2022-11-14T21:34:14.962Z,470.30
2022-11-14T21:36:46.264Z,470.93
2022-11-14T21:39:12.927Z,479.43
2022-11-14T21:41:39.568Z,568.77
2022-11-14T21:44:05.951Z,547.53
2022-11-14T21:46:32.346Z,503.70
2022-11-14T21:48:58.721Z,498.57
2022-11-14T21:51:25.121Z,510.00
2022-11-14T21:53:51.510Z,548.47
2022-11-14T21:56:17.905Z,586.07
2022-11-14T21:58:44.282Z,529.40
2022-11-14T22:01:10.705Z,530.37
2022-11-14T22:03:37.256Z,564.90
2022-11-14T22:06:03.734Z,493.03
2022-11-14T22:08:30.139Z,465.87
2022-11-14T22:10:56.554Z,455.50
2022-11-14T22:13:22.939Z,463.90
2022-11-14T22:15:49.333Z,453.50
2022-11-14T22:18:15.729Z,472.10
2022-11-14T22:20:42.144Z,452.40
2022-11-14T22:23:08.536Z,462.03
2022-11-14T22:25:34.907Z,452.57
2022-11-14T22:28:01.319Z,458.07
2022-11-14T22:30:27.701Z,475.57
2022-11-14T22:32:54.114Z,461.83
2022-11-14T22:35:20.531Z,448.63
2022-11-14T22:37:46.949Z,468.40
2022-11-14T22:40:13.336Z,449.97
2022-11-14T22:42:39.747Z,451.93
2022-11-14T22:45:06.133Z,465.73
2022-11-14T22:47:32.538Z,468.53
2022-11-14T22:49:58.920Z,468.20
2022-11-14T22:52:25.317Z,470.70
2022-11-14T22:54:51.706Z,446.70
2022-11-14T22:57:18.356Z,448.23
2022-11-14T22:59:44.791Z,448.23
2022-11-14T23:02:11.317Z,446.00
2022-11-14T23:04:37.940Z,466.83
2022-11-14T23:07:04.392Z,451.03
2022-11-14T23:09:30.847Z,470.43
2022-11-14T23:11:57.259Z,469.93
2022-11-14T23:14:23.693Z,465.23
2022-11-14T23:16:50.093Z,454.60
2022-11-14T23:19:16.494Z,449.20
2022-11-14T23:21:42.939Z,443.90
2022-11-14T23:24:09.435Z,466.27
2022-11-14T23:26:35.839Z,470.37
2022-11-14T23:29:02.218Z,468.53
2022-11-14T23:31:28.658Z,461.17
2022-11-14T23:33:55.068Z,452.77
2022-11-14T23:36:21.511Z,466.67
2022-11-14T23:38:47.933Z,449.10
2022-11-14T23:41:14.339Z,460.07
2022-11-14T23:43:40.778Z,447.53
2022-11-14T23:46:07.224Z,537.67
2022-11-14T23:48:33.608Z,478.43
2022-11-14T23:51:03.056Z,475.03
2022-11-14T23:53:29.769Z,470.50
2022-11-14T23:55:56.390Z,454.50
2022-11-14T23:58:22.829Z,474.37
